Time;durP1;ratioP1;P1;durP2;ratioP2;P2;SDS_P1;SDS_P2;PMS_P1;PMS_P2;Temp;Humidity;BMP_temperature;BMP_pressure;BME280_temperature;BME280_humidity;BME280_pressure;Samples;Min_cycle;Max_cycle;Signal;HPM_P1;HPM_P2
2022/08/01 00:01:26;;;;;;;7.22;6.62;;;;;;;14.81;100.00;98579.38;2157362;83;21313;-85
2022/08/01 00:04:27;;;;;;;8.10;7.28;;;;;;;14.77;100.00;98581.17;2157358;83;20961;-84
2022/08/01 00:07:27;;;;;;;7.80;6.67;;;;;;;14.77;100.00;98581.17;2161901;82;21198;-83
2022/08/01 00:10:28;;;;;;;12.00;7.72;;;;;;;14.74;100.00;98572.41;2221041;80;20885;-84
2022/08/01 00:13:28;;;;;;;8.38;7.10;;;;;;;14.71;100.00;98579.00;2220860;79;20928;-84
2022/08/01 00:16:29;;;;;;;11.20;7.92;;;;;;;14.68;100.00;98578.59;2221375;79;20897;-86
2022/08/01 00:19:29;;;;;;;10.15;7.90;;;;;;;14.64;100.00;98585.63;2220836;79;20968;-86
2022/08/01 00:22:29;;;;;;;9.15;7.97;;;;;;;14.62;100.00;98577.33;2220950;79;20905;-86
2022/08/01 00:25:30;;;;;;;8.00;7.33;;;;;;;14.58;100.00;98580.42;2220898;79;20905;-86
2022/08/01 00:28:30;;;;;;;8.55;7.75;;;;;;;14.57;100.00;98585.25;2220636;79;21284;-87
2022/08/01 00:31:31;;;;;;;9.83;7.22;;;;;;;14.57;100.00;98586.56;2221180;79;20944;-87
2022/08/01 00:34:31;;;;;;;8.70;7.72;;;;;;;14.56;100.00;98580.88;2221328;79;20878;-85
2022/08/01 00:37:31;;;;;;;8.73;7.92;;;;;;;14.56;100.00;98581.32;2220825;79;20909;-86
2022/08/01 00:40:32;;;;;;;10.68;7.75;;;;;;;14.56;100.00;98578.25;2220728;79;20891;-85
2022/08/01 00:43:32;;;;;;;9.05;8.15;;;;;;;14.56;100.00;98578.69;2220884;79;20944;-87
2022/08/01 00:46:32;;;;;;;7.97;7.28;;;;;;;14.57;100.00;98579.99;2221180;79;20940;-84
2022/08/01 00:49:33;;;;;;;7.97;7.20;;;;;;;14.57;100.00;98582.62;2220682;79;21351;-84
2022/08/01 00:52:33;;;;;;;8.73;7.85;;;;;;;14.57;100.00;98579.99;2220952;79;20878;-87
2022/08/01 00:55:34;;;;;;;9.95;8.18;;;;;;;14.56;100.00;98583.50;2221364;79;20940;-87
2022/08/01 00:58:34;;;;;;;9.78;7.78;;;;;;;14.56;100.00;98586.13;2221353;79;20877;-85
2022/08/01 01:01:35;;;;;;;9.75;7.62;;;;;;;14.57;100.00;98586.56;2221176;79;20940;-85
2022/08/01 01:04:37;;;;;;;8.83;8.03;;;;;;;14.56;100.00;98595.32;2220996;79;20896;-87
2022/08/01 01:07:37;;;;;;;8.43;7.58;;;;;;;14.57;100.00;98595.75;2199305;80;20941;-85
2022/08/01 01:10:38;;;;;;;9.45;7.58;;;;;;;14.57;100.00;98595.75;2220689;79;20874;-85
2022/08/01 01:13:38;;;;;;;9.28;8.33;;;;;;;14.57;100.00;98595.75;2220378;79;21321;-85
2022/08/01 01:16:39;;;;;;;8.90;8.00;;;;;;;14.57;100.00;98596.20;2220778;79;20897;-85
2022/08/01 01:19:39;;;;;;;18.50;8.65;;;;;;;14.57;100.00;98590.94;2221060;79;20964;-86
2022/08/01 01:22:39;;;;;;;8.48;7.67;;;;;;;14.58;100.00;98597.50;2221190;79;20928;-85
2022/08/01 01:25:40;;;;;;;9.20;8.00;;;;;;;14.60;100.00;98604.05;2221028;79;20940;-85
2022/08/01 01:28:41;;;;;;;10.18;8.10;;;;;;;14.59;100.00;98608.44;2221108;79;21292;-90
2022/08/01 01:31:41;;;;;;;10.28;8.50;;;;;;;14.58;100.00;98603.19;2220837;79;20932;-85
2022/08/01 01:34:41;;;;;;;9.75;8.83;;;;;;;14.55;100.00;98608.02;2221214;79;20881;-85
2022/08/01 01:37:41;;;;;;;10.60;9.73;;;;;;;14.55;100.00;98603.22;2220582;79;20925;-85
2022/08/01 01:40:42;;;;;;;10.93;9.93;;;;;;;14.56;100.00;98601.02;2221257;79;20932;-85
2022/08/01 01:43:42;;;;;;;11.10;9.85;;;;;;;14.54;100.00;98592.28;2221336;79;21300;-85
2022/08/01 01:46:43;;;;;;;10.60;9.65;;;;;;;14.54;100.00;98595.78;2221121;79;20909;-85
2022/08/01 01:49:43;;;;;;;10.00;9.05;;;;;;;14.54;100.00;98594.91;2221441;79;20940;-85
2022/08/01 01:52:43;;;;;;;10.40;9.58;;;;;;;14.55;100.00;98601.91;2220869;79;20940;-85
2022/08/01 01:55:44;;;;;;;10.85;9.68;;;;;;;14.56;100.00;98597.95;2220849;79;21288;-85
2022/08/01 01:58:44;;;;;;;11.25;10.20;;;;;;;14.56;100.00;98595.32;2220706;79;20905;-85
2022/08/01 02:01:45;;;;;;;10.95;10.03;;;;;;;14.59;100.00;98598.37;2221117;79;20909;-85
2022/08/01 02:04:45;;;;;;;10.68;9.40;;;;;;;14.60;100.00;98595.73;2221096;79;21299;-88
2022/08/01 02:07:46;;;;;;;9.80;8.03;;;;;;;14.61;100.00;98603.17;2231714;79;20979;-85
2022/08/01 02:11:32;;;;;;;13.90;7.90;;;;;;;14.60;100.00;98604.92;2238654;79;20908;-85
2022/08/01 02:13:47;;;;;;;9.50;8.75;;;;;;;14.57;100.00;98602.77;2187999;81;20955;-86
2022/08/01 02:16:47;;;;;;;14.10;8.35;;;;;;;14.52;100.00;98601.48;2174065;81;20932;-86
2022/08/01 02:19:48;;;;;;;11.65;8.63;;;;;;;14.45;100.00;98602.41;2238085;79;20963;-85
2022/08/01 02:22:48;;;;;;;10.05;8.38;;;;;;;14.39;100.00;98601.11;2238414;79;20919;-86
2022/08/01 02:25:49;;;;;;;10.18;8.80;;;;;;;14.33;100.00;98602.03;2238165;79;21275;-86
2022/08/01 02:28:49;;;;;;;15.60;9.00;;;;;;;14.27;100.00;98595.51;2238333;79;20881;-87
2022/08/01 02:31:49;;;;;;;21.10;10.63;;;;;;;14.19;100.00;98596.00;2238648;79;20899;-87
2022/08/01 02:34:50;;;;;;;17.82;13.72;;;;;;;14.14;100.00;98592.98;2238707;79;21283;-87
2022/08/01 02:37:50;;;;;;;14.40;12.65;;;;;;;14.08;100.00;98602.20;2237878;79;20946;-85
2022/08/01 02:40:51;;;;;;;14.05;12.35;;;;;;;14.02;100.00;98599.17;2238609;79;20947;-86
2022/08/01 02:43:51;;;;;;;13.70;12.28;;;;;;;13.97;100.00;98600.52;2238527;79;20959;-89
2022/08/01 02:46:51;;;;;;;14.05;11.33;;;;;;;13.91;100.00;98601.86;2238448;80;21352;-87
2022/08/01 02:49:52;;;;;;;14.13;10.63;;;;;;;13.83;100.00;98602.74;2238891;79;21011;-86
2022/08/01 02:52:56;;;;;;;13.10;9.53;;;;;;;13.79;100.00;98599.27;2218267;80;21323;-87
2022/08/01 02:55:56;;;;;;;17.12;9.98;;;;;;;13.76;100.00;98599.72;2238672;79;20923;-88
2022/08/01 02:58:57;;;;;;;10.05;9.05;;;;;;;13.72;100.00;98598.86;2238442;79;21271;-86
2022/08/01 03:01:57;;;;;;;10.60;9.70;;;;;;;13.71;100.00;98599.74;2238395;79;20952;-86
2022/08/01 03:04:58;;;;;;;15.75;10.15;;;;;;;13.69;100.00;98597.56;2238255;79;20884;-86
2022/08/01 03:07:58;;;;;;;10.68;9.58;;;;;;;13.69;100.00;98600.19;2218455;79;20965;-86
2022/08/01 03:10:58;;;;;;;9.85;8.63;;;;;;;13.70;100.00;98601.48;2207377;79;20973;-87
2022/08/01 03:13:59;;;;;;;9.80;9.00;;;;;;;13.72;100.00;98604.11;2207804;81;20909;-87
2022/08/01 03:16:59;;;;;;;14.65;8.85;;;;;;;13.72;100.00;98596.23;2206942;79;20905;-85
2022/08/01 03:20:00;;;;;;;11.25;9.05;;;;;;;13.75;100.00;98599.28;2206804;79;20961;-86
2022/08/01 03:23:00;;;;;;;10.98;8.75;;;;;;;13.78;100.00;98601.45;2207241;79;20960;-86
2022/08/01 03:26:00;;;;;;;14.38;9.33;;;;;;;13.79;100.00;98603.20;2207608;81;20976;-84
2022/08/01 03:29:01;;;;;;;16.15;9.80;;;;;;;13.81;100.00;98604.06;2207415;79;21360;-84
2022/08/01 03:32:02;;;;;;;11.57;8.90;;;;;;;13.85;100.00;98600.98;2207475;80;20929;-84
2022/08/01 03:35:01;;;;;;;10.48;9.43;;;;;;;13.88;100.00;98608.44;2207593;80;20949;-84
2022/08/01 03:38:02;;;;;;;10.90;9.20;;;;;;;13.93;100.00;98611.91;2206882;79;21277;-84
2022/08/01 03:41:02;;;;;;;14.70;9.68;;;;;;;13.98;100.00;98610.57;2206869;79;20969;-84
2022/08/01 03:44:03;;;;;;;11.88;10.45;;;;;;;13.99;100.00;98614.50;2206954;79;20944;-85
2022/08/01 03:47:03;;;;;;;62.78;11.22;;;;;;;14.01;100.00;98612.73;2206399;79;21317;-85
2022/08/01 03:50:03;;;;;;;99.25;13.98;;;;;;;14.03;100.00;98614.04;2205917;79;20937;-86
2022/08/01 03:53:04;;;;;;;74.70;13.00;;;;;;;14.02;100.00;98620.17;2206752;79;20912;-84
2022/08/01 03:56:04;;;;;;;82.33;14.47;;;;;;;13.96;100.00;98632.88;2206508;79;20928;-85
2022/08/01 03:59:05;;;;;;;88.33;12.55;;;;;;;13.92;100.00;98634.22;2206388;81;21329;-84
2022/08/01 04:02:05;;;;;;;76.15;11.43;;;;;;;13.85;100.00;98632.03;2207303;81;20901;-84
2022/08/01 04:05:06;;;;;;;81.05;12.53;;;;;;;13.85;100.00;98631.16;2207486;79;20957;-84
2022/08/01 04:08:06;;;;;;;105.95;12.18;;;;;;;13.88;100.00;98634.67;2207353;79;20952;-85
2022/08/01 04:11:07;;;;;;;93.22;11.10;;;;;;;13.92;100.00;98636.84;2207642;80;21230;-86
2022/08/01 04:14:10;;;;;;;64.42;10.13;;;;;;;13.94;100.00;98634.64;2207536;79;21079;-84
2022/08/01 04:17:10;;;;;;;85.05;10.50;;;;;;;13.96;100.00;98642.06;2206914;81;21246;-84
2022/08/01 04:20:11;;;;;;;110.90;11.53;;;;;;;14.01;100.00;98638.98;2207000;79;21007;-84
2022/08/01 04:23:11;;;;;;;90.95;11.30;;;;;;;14.08;100.00;98645.51;2206479;79;20984;-84
2022/08/01 04:26:11;;;;;;;94.22;11.10;;;;;;;14.12;100.00;98638.92;2205866;80;20925;-85
2022/08/01 04:29:12;;;;;;;105.22;11.00;;;;;;;14.14;100.00;98640.22;2205648;79;20929;-84
2022/08/01 04:32:12;;;;;;;86.22;13.05;;;;;;;14.18;100.00;98641.95;2205920;79;21532;-84
2022/08/01 04:35:12;;;;;;;55.25;11.78;;;;;;;14.22;100.00;98639.73;2205754;79;20948;-84
2022/08/01 04:38:13;;;;;;;52.35;10.50;;;;;;;14.30;100.00;98639.25;2206686;81;20960;-83
2022/08/01 04:41:13;;;;;;;44.80;10.10;;;;;;;14.39;100.00;98636.56;2206037;79;21352;-85
2022/08/01 04:44:14;;;;;;;44.20;10.63;;;;;;;14.42;100.00;98639.20;2205004;79;20956;-83
2022/08/01 04:47:14;;;;;;;54.40;12.37;;;;;;;14.48;100.00;98639.60;2204980;79;20918;-84
2022/08/01 04:50:14;;;;;;;58.65;11.80;;;;;;;14.58;100.00;98642.15;2205534;79;21000;-84
2022/08/01 04:53:16;;;;;;;50.40;12.85;;;;;;;14.60;100.00;98640.38;2205873;79;21380;-84
2022/08/01 04:56:15;;;;;;;50.08;12.15;;;;;;;14.68;100.00;98636.83;2206552;79;20957;-84
2022/08/01 05:02:35;;;;;;;22.20;12.90;;;;;;;14.83;100.00;98637.61;2206831;80;20909;-82
2022/08/01 05:05:35;;;;;;;31.65;13.00;;;;;;;14.86;100.00;98639.34;2205387;81;20933;-84
2022/08/01 05:08:35;;;;;;;29.92;12.63;;;;;;;14.93;100.00;98637.08;2206488;79;21438;-82
2022/08/01 05:11:36;;;;;;;32.28;14.43;;;;;;;15.00;100.00;98635.27;2206696;79;20905;-82
2022/08/01 05:14:36;;;;;;;24.07;13.75;;;;;;;15.01;100.00;98638.33;2206027;79;20944;-84
2022/08/01 05:17:37;;;;;;;18.73;12.47;;;;;;;15.09;100.00;98641.75;2206727;79;20928;-82
2022/08/01 05:20:37;;;;;;;25.55;13.75;;;;;;;15.11;100.00;98642.61;2205905;79;21454;-83
2022/08/01 05:23:37;;;;;;;26.23;12.95;;;;;;;15.17;100.00;98644.73;2205090;80;20949;-84
2022/08/01 05:26:38;;;;;;;26.23;14.03;;;;;;;15.27;100.00;98642.89;2205571;80;20992;-83
2022/08/01 05:29:38;;;;;;;24.37;14.18;;;;;;;15.40;100.00;98644.50;2205632;80;21316;-82
2022/08/01 05:32:39;;;;;;;37.83;25.15;;;;;;;15.49;100.00;98644.84;2206100;79;20956;-82
2022/08/01 05:35:39;;;;;;;24.55;14.63;;;;;;;15.60;100.00;98646.53;2207531;79;20957;-81
2022/08/01 05:38:39;;;;;;;16.70;14.65;;;;;;;15.72;100.00;98649.91;2207474;80;20914;-81
2022/08/01 05:41:40;;;;;;;20.35;13.98;;;;;;;15.69;100.00;98650.82;2206484;80;21716;-84
2022/08/01 05:44:40;;;;;;;23.27;13.43;;;;;;;15.75;100.00;98654.70;2206085;80;21024;-84
2022/08/01 05:47:41;;;;;;;25.68;13.90;;;;;;;15.79;100.00;98656.40;2193044;81;21960;-84
2022/08/01 05:50:42;;;;;;;23.83;17.17;;;;;;;15.86;100.00;98659.38;2205737;79;21016;-84
2022/08/01 05:53:42;;;;;;;16.07;14.35;;;;;;;15.90;100.00;98663.72;2205754;79;21285;-85
2022/08/01 05:56:43;;;;;;;17.77;13.58;;;;;;;15.97;100.00;98665.83;2205913;79;20929;-85
2022/08/01 05:59:43;;;;;;;19.25;17.25;;;;;;;16.08;100.00;98661.30;2205835;81;20898;-84
2022/08/01 06:02:44;;;;;;;20.00;15.72;;;;;;;16.19;100.00;98666.42;2206176;80;21032;-83
2022/08/01 06:05:44;;;;;;;12.93;11.53;;;;;;;16.32;100.00;98671.94;2205494;80;20910;-84
2022/08/01 06:08:45;;;;;;;17.17;12.37;;;;;;;16.45;97.88;98669.56;2205556;79;20956;-83
2022/08/01 06:11:45;;;;;;;22.55;15.32;;;;;;;16.45;97.92;98672.19;2205533;80;20962;-85
2022/08/01 06:14:46;;;;;;;20.37;14.13;;;;;;;16.44;98.41;98672.22;2205285;79;20906;-84
2022/08/01 06:17:46;;;;;;;18.55;12.68;;;;;;;16.47;98.88;98677.03;2205465;80;20961;-85
2022/08/01 06:20:46;;;;;;;15.88;12.90;;;;;;;16.56;99.02;98674.26;2205411;80;21651;-85
2022/08/01 06:23:47;;;;;;;16.20;11.28;;;;;;;16.75;98.89;98679.28;2205031;79;20937;-85
2022/08/01 06:26:47;;;;;;;15.43;10.55;;;;;;;17.00;97.53;98675.80;2205930;80;20874;-83
2022/08/01 06:29:48;;;;;;;11.18;9.73;;;;;;;17.17;96.06;98672.43;2206884;80;20909;-81
2022/08/01 06:32:48;;;;;;;13.30;11.90;;;;;;;17.26;95.05;98673.59;2206600;80;20929;-85
2022/08/01 06:35:48;;;;;;;22.02;16.57;;;;;;;17.40;94.17;98678.65;2206500;80;20932;-82
2022/08/01 06:38:49;;;;;;;19.27;17.02;;;;;;;17.40;93.73;98676.02;2204897;80;20909;-82
2022/08/01 06:41:49;;;;;;;15.93;14.15;;;;;;;17.47;94.07;98678.95;2205050;80;20965;-83
2022/08/01 06:44:50;;;;;;;11.55;10.45;;;;;;;17.59;93.76;98681.37;2205654;80;21259;-83
2022/08/01 06:47:50;;;;;;;14.85;11.70;;;;;;;17.66;92.06;98685.66;2206117;80;20957;-84
2022/08/01 06:51:07;;;;;;;14.05;12.65;;;;;;;17.60;91.88;98681.79;2205612;80;21017;-84
2022/08/01 06:53:51;;;;;;;12.37;11.10;;;;;;;17.66;91.81;98683.44;2205972;80;20921;-85
2022/08/01 06:56:51;;;;;;;12.95;11.65;;;;;;;17.91;91.61;98683.86;2206210;80;20917;-83
2022/08/01 06:59:52;;;;;;;12.25;11.05;;;;;;;18.20;91.58;98681.48;2206383;80;20943;-85
2022/08/01 07:02:52;;;;;;;12.85;11.65;;;;;;;18.42;90.25;98678.83;2206586;80;20944;-83
2022/08/01 07:05:52;;;;;;;17.25;15.55;;;;;;;18.55;89.16;98683.37;2206057;80;20917;-83
2022/08/01 07:08:53;;;;;;;18.10;15.28;;;;;;;18.67;88.95;98673.02;2225642;80;20980;-84
2022/08/01 07:11:53;;;;;;;19.02;17.07;;;;;;;18.90;88.43;98675.97;2236287;79;21359;-85
2022/08/01 07:14:54;;;;;;;14.33;13.00;;;;;;;18.99;88.11;98683.69;2236494;79;20936;-84
2022/08/01 07:17:54;;;;;;;14.00;12.45;;;;;;;19.09;85.95;98683.91;2236953;80;21054;-83
2022/08/01 07:20:54;;;;;;;12.37;10.93;;;;;;;19.20;85.94;98683.63;2236448;79;21363;-85
2022/08/01 07:23:55;;;;;;;13.25;12.00;;;;;;;19.45;85.88;98694.45;2236340;79;20924;-85
2022/08/01 07:26:57;;;;;;;13.80;12.40;;;;;;;19.59;83.78;98691.02;2236199;79;20908;-84
2022/08/01 07:29:56;;;;;;;13.13;11.65;;;;;;;19.69;83.70;98683.70;2236620;79;21341;-84
2022/08/01 07:32:57;;;;;;;13.93;12.45;;;;;;;19.91;83.87;98683.97;2236927;79;20935;-83
2022/08/01 07:35:57;;;;;;;18.70;16.87;;;;;;;20.14;83.32;98688.18;2237715;79;20928;-83
2022/08/01 07:38:57;;;;;;;13.38;12.07;;;;;;;20.33;82.08;98688.51;2237473;80;20904;-84
2022/08/01 07:41:58;;;;;;;11.93;10.20;;;;;;;20.43;81.26;98692.66;2236493;79;20892;-84
2022/08/01 07:44:58;;;;;;;10.05;9.08;;;;;;;20.75;81.88;98684.16;2236817;79;20944;-84
2022/08/01 07:47:59;;;;;;;18.12;9.85;;;;;;;21.06;79.63;98681.41;2235535;79;21229;-83
2022/08/01 07:50:59;;;;;;;11.45;10.35;;;;;;;21.19;79.10;98674.31;2235132;80;20952;-84
2022/08/01 07:53:59;;;;;;;13.05;11.90;;;;;;;21.20;76.77;98683.14;2236182;79;20923;-86
2022/08/01 07:57:00;;;;;;;12.15;11.12;;;;;;;21.17;77.78;98684.12;2235686;79;20912;-85
2022/08/01 08:00:00;;;;;;;13.50;12.20;;;;;;;21.21;76.30;98679.58;2235273;79;20976;-85
2022/08/01 08:03:01;;;;;;;12.05;10.98;;;;;;;21.10;77.28;98676.41;2236132;79;20979;-84
2022/08/01 08:06:01;;;;;;;11.60;10.43;;;;;;;21.07;76.86;98673.40;2235561;79;20939;-80
2022/08/01 08:09:01;;;;;;;12.47;11.38;;;;;;;21.23;75.86;98681.75;2234900;79;20932;-80
2022/08/01 08:12:02;;;;;;;11.48;10.48;;;;;;;21.17;77.18;98673.50;2234589;79;20880;-81
2022/08/01 08:15:05;;;;;;;36.20;11.60;;;;;;;21.65;76.99;98674.55;2236346;80;20960;-84
2022/08/01 08:18:05;;;;;;;15.38;10.60;;;;;;;22.24;77.31;98671.95;2236868;79;21330;-84
2022/08/01 08:21:05;;;;;;;9.73;8.70;;;;;;;22.94;75.19;98662.17;2216411;80;21014;-83
2022/08/01 08:24:19;;;;;;;9.63;8.73;;;;;;;23.25;72.45;98668.42;2216815;80;20948;-84
2022/08/01 08:27:20;;;;;;;10.18;9.13;;;;;;;23.04;70.47;98672.39;2236627;79;20916;-82
2022/08/01 08:30:20;;;;;;;10.75;9.85;;;;;;;23.08;71.95;98673.13;2236292;79;20920;-81
2022/08/01 08:33:21;;;;;;;10.43;9.30;;;;;;;23.07;71.41;98665.60;2236923;79;20940;-84
2022/08/01 08:36:21;;;;;;;9.78;8.85;;;;;;;23.22;71.23;98672.55;2236009;79;20963;-84
2022/08/01 08:39:21;;;;;;;9.43;8.50;;;;;;;23.20;69.68;98669.95;2236256;79;20944;-84
2022/08/01 08:42:22;;;;;;;18.23;10.38;;;;;;;22.78;68.18;98670.75;2236634;80;21015;-84
2022/08/01 08:45:22;;;;;;;9.68;8.88;;;;;;;22.65;69.76;98676.16;2237075;79;20884;-84
2022/08/01 08:48:23;;;;;;;12.55;7.50;;;;;;;23.02;69.83;98676.04;2236699;79;20951;-84
2022/08/01 08:51:23;;;;;;;9.95;9.03;;;;;;;23.25;68.35;98678.61;2236168;80;21019;-84
2022/08/01 08:54:24;;;;;;;10.38;8.28;;;;;;;23.42;67.76;98681.46;2236208;79;20884;-84
2022/08/01 08:57:24;;;;;;;9.38;8.68;;;;;;;23.71;68.60;98679.36;2236038;79;21229;-84
2022/08/01 09:00:24;;;;;;;9.05;7.97;;;;;;;24.00;66.86;98682.94;2237160;79;20953;-84
2022/08/01 09:03:25;;;;;;;8.95;7.85;;;;;;;24.27;66.49;98676.84;2237388;79;20936;-84
2022/08/01 09:06:25;;;;;;;8.45;7.05;;;;;;;24.62;64.95;98686.36;2236949;80;21275;-84
2022/08/01 09:09:25;;;;;;;9.08;6.70;;;;;;;24.87;65.35;98689.58;2216192;80;21000;-83
2022/08/01 09:12:26;;;;;;;7.80;7.20;;;;;;;25.10;63.77;98685.81;2206317;79;20913;-84
2022/08/01 09:15:26;;;;;;;8.20;7.28;;;;;;;25.34;62.70;98683.75;2205561;79;20918;-84
2022/08/01 09:18:27;;;;;;;7.70;7.00;;;;;;;25.65;61.20;98684.38;2205200;79;20949;-84
2022/08/01 09:21:27;;;;;;;6.75;6.00;;;;;;;25.66;60.09;98687.02;2205263;79;20967;-84
2022/08/01 09:24:27;;;;;;;5.25;4.72;;;;;;;25.67;59.90;98685.20;2205331;81;20972;-83
2022/08/01 09:27:28;;;;;;;5.92;5.22;;;;;;;25.90;57.99;98681.33;2206226;79;21264;-84
2022/08/01 09:30:28;;;;;;;5.87;5.47;;;;;;;25.97;56.77;98681.39;2206871;80;20977;-85
2022/08/01 09:33:29;;;;;;;5.85;5.33;;;;;;;25.80;57.03;98686.77;2206112;80;20881;-87
2022/08/01 09:36:29;;;;;;;5.33;4.35;;;;;;;25.70;57.72;98681.03;2206168;79;21303;-84
2022/08/01 09:39:29;;;;;;;4.92;3.87;;;;;;;25.93;55.83;98682.02;2206007;79;20988;-84
2022/08/01 09:42:30;;;;;;;50.65;8.65;;;;;;;26.34;52.75;98675.84;2205995;79;20953;-84
2022/08/01 09:45:32;;;;;;;125.90;13.33;;;;;;;26.47;54.36;98670.68;2193087;81;20960;-83
2022/08/01 09:48:33;;;;;;;4.10;3.80;;;;;;;26.81;53.21;98671.46;2205776;81;20936;-83
2022/08/01 09:51:33;;;;;;;5.30;4.85;;;;;;;26.73;51.42;98669.22;2204545;80;20936;-86
2022/08/01 09:54:34;;;;;;;5.12;4.72;;;;;;;26.37;52.90;98672.14;2205733;81;20932;-83
2022/08/01 09:57:34;;;;;;;5.47;4.35;;;;;;;26.21;53.52;98677.91;2205667;79;21254;-83
2022/08/01 10:00:34;;;;;;;3.92;3.62;;;;;;;26.27;53.29;98675.76;2206385;79;20914;-84
2022/08/01 10:03:35;;;;;;;4.33;3.92;;;;;;;26.38;52.27;98666.31;2205848;79;20913;-84
2022/08/01 10:06:36;;;;;;;3.87;3.58;;;;;;;26.38;50.95;98671.19;2205404;79;20924;-85
2022/08/01 10:09:36;;;;;;;3.60;3.00;;;;;;;26.79;49.34;98672.02;2205461;80;21645;-84
2022/08/01 10:12:36;;;;;;;4.37;2.90;;;;;;;26.79;49.34;98672.02;2205488;80;20956;-84
2022/08/01 10:15:37;;;;;;;3.15;2.85;;;;;;;27.02;47.78;98670.77;2205443;79;20896;-84
2022/08/01 10:18:37;;;;;;;6.30;3.37;;;;;;;27.34;47.52;98669.76;2205102;80;20932;-83
2022/08/01 10:21:37;;;;;;;5.25;3.25;;;;;;;27.42;46.66;98666.14;2204113;81;20972;-84
2022/08/01 10:24:38;;;;;;;3.22;2.92;;;;;;;27.40;46.13;98668.53;2206234;79;20938;-84
2022/08/01 10:27:38;;;;;;;4.85;3.20;;;;;;;27.40;46.13;98668.53;2206479;80;20881;-85
2022/08/01 10:30:39;;;;;;;8.80;3.70;;;;;;;27.27;47.28;98661.70;2206862;80;20936;-84
2022/08/01 10:33:41;;;;;;;7.42;3.40;;;;;;;27.31;48.08;98665.05;2206249;79;20874;-82
2022/08/01 10:36:39;;;;;;;5.80;3.25;;;;;;;27.38;47.91;98656.56;2204587;80;21694;-83
2022/08/01 10:39:40;;;;;;;3.67;3.20;;;;;;;27.57;48.30;98650.95;2205052;80;20969;-83
2022/08/01 10:42:40;;;;;;;6.28;3.83;;;;;;;27.96;47.88;98645.52;2204827;80;20972;-83
2022/08/01 10:45:41;;;;;;;4.85;3.65;;;;;;;28.18;46.40;98651.27;2204413;81;20862;-82
2022/08/01 10:48:41;;;;;;;4.85;2.90;;;;;;;28.20;46.07;98648.02;2204501;80;21296;-83
2022/08/01 10:51:41;;;;;;;5.00;3.37;;;;;;;28.12;46.05;98641.78;2204640;80;20996;-82
2022/08/01 10:54:42;;;;;;;3.60;3.30;;;;;;;28.00;46.28;98645.71;2204269;81;20889;-82
2022/08/01 10:57:42;;;;;;;4.87;3.58;;;;;;;27.98;44.60;98655.20;2204656;81;20865;-83
2022/08/01 11:00:43;;;;;;;5.25;4.40;;;;;;;27.89;45.07;98653.95;2205875;81;20953;-83
2022/08/01 11:03:43;;;;;;;4.17;3.77;;;;;;;27.87;46.63;98653.66;2205611;79;21395;-83
2022/08/01 11:06:43;;;;;;;198.02;16.75;;;;;;;28.01;45.88;98644.28;2204991;79;20941;-81
2022/08/01 11:09:44;;;;;;;4.20;3.65;;;;;;;28.31;46.82;98646.89;2217668;79;20995;-84
2022/08/01 11:12:44;;;;;;;25.17;5.15;;;;;;;28.43;46.36;98647.45;2225772;79;20952;-83
2022/08/01 11:15:45;;;;;;;4.15;3.75;;;;;;;28.41;45.76;98645.34;2225706;79;20903;-83
2022/08/01 11:18:45;;;;;;;3.75;3.35;;;;;;;28.61;45.10;98647.22;2225820;80;20925;-82
2022/08/01 11:21:45;;;;;;;5.33;3.75;;;;;;;28.58;45.51;98642.05;2225714;79;21366;-84
2022/08/01 11:24:46;;;;;;;5.40;3.67;;;;;;;28.68;44.42;98645.41;2225144;79;20908;-83
2022/08/01 11:27:46;;;;;;;6.37;3.30;;;;;;;28.66;46.35;98650.50;2225809;80;20909;-83
2022/08/01 11:30:47;;;;;;;3.47;3.17;;;;;;;28.67;42.66;98655.78;2225307;80;20889;-84
2022/08/01 11:33:47;;;;;;;3.65;3.35;;;;;;;28.56;44.35;98646.17;2225936;79;21327;-85
2022/08/01 11:36:47;;;;;;;4.75;3.70;;;;;;;28.52;45.38;98648.20;2226274;79;20873;-84
2022/08/01 11:39:48;;;;;;;4.15;3.75;;;;;;;28.52;45.74;98648.20;2226309;79;20921;-85
2022/08/01 11:42:48;;;;;;;4.00;3.60;;;;;;;28.44;46.43;98642.46;2225596;79;20928;-83
2022/08/01 11:45:49;;;;;;;3.70;3.30;;;;;;;28.33;46.95;98642.28;2226611;80;21299;-81
2022/08/01 11:48:49;;;;;;;5.53;3.50;;;;;;;28.16;46.47;98646.48;2225387;79;20916;-83
2022/08/01 11:51:49;;;;;;;3.67;3.35;;;;;;;28.14;46.66;98641.69;2226301;79;20940;-82
2022/08/01 11:54:50;;;;;;;5.70;3.83;;;;;;;27.98;47.65;98647.62;2227116;80;20951;-82
2022/08/01 11:57:50;;;;;;;5.35;3.90;;;;;;;28.15;48.07;98636.70;2226473;79;21339;-82
2022/08/01 12:00:51;;;;;;;3.98;3.72;;;;;;;28.22;47.27;98642.93;2225431;79;20939;-82
2022/08/01 12:03:51;;;;;;;8.60;3.92;;;;;;;28.20;46.15;98645.33;2226377;80;20952;-82
2022/08/01 12:06:54;;;;;;;4.05;3.65;;;;;;;28.09;46.99;98641.11;2226401;79;20916;-81
2022/08/01 12:09:55;;;;;;;4.10;3.52;;;;;;;28.13;47.75;98642.65;2231152;79;21679;-81
2022/08/01 12:12:55;;;;;;;3.40;3.10;;;;;;;28.18;47.63;98644.56;2235536;79;20901;-83
2022/08/01 12:15:56;;;;;;;3.98;3.55;;;;;;;28.31;47.29;98638.83;2235304;80;20943;-81
2022/08/01 12:18:56;;;;;;;4.78;2.85;;;;;;;28.32;46.22;98647.75;2234950;79;20891;-80
2022/08/01 12:21:56;;;;;;;3.75;3.10;;;;;;;28.14;45.46;98641.69;2233970;79;21711;-79
2022/08/01 12:24:57;;;;;;;4.25;2.60;;;;;;;28.15;45.46;98642.94;2232784;79;21135;-82
2022/08/01 12:27:57;;;;;;;2.58;2.37;;;;;;;28.22;45.30;98638.04;2234088;79;20896;-80
2022/08/01 12:30:58;;;;;;;2.98;2.77;;;;;;;28.32;44.25;98635.67;2233534;79;20892;-79
2022/08/01 12:33:58;;;;;;;3.50;2.87;;;;;;;28.39;44.59;98635.18;2233429;79;21705;-79
2022/08/01 12:36:58;;;;;;;4.08;3.55;;;;;;;28.52;43.77;98633.91;2234058;79;20892;-84
2022/08/01 12:39:59;;;;;;;6.78;3.08;;;;;;;28.66;43.85;98631.70;2235357;79;20912;-83
2022/08/01 12:42:59;;;;;;;4.78;3.17;;;;;;;28.56;42.45;98634.09;2236182;79;20953;-85
2022/08/01 12:46:00;;;;;;;51.35;6.53;;;;;;;28.56;42.45;98634.09;2237263;79;20909;-83
2022/08/01 12:49:00;;;;;;;5.67;2.60;;;;;;;28.56;43.19;98627.38;2236842;80;20960;-83
2022/08/01 12:52:00;;;;;;;5.22;2.52;;;;;;;28.81;43.45;98628.02;2237367;79;20955;-83
2022/08/01 12:55:01;;;;;;;2.65;2.45;;;;;;;29.06;42.36;98609.81;2237029;80;20935;-83
2022/08/01 12:58:01;;;;;;;6.75;2.50;;;;;;;28.88;42.24;98628.02;2236582;79;20876;-84
2022/08/01 13:01:02;;;;;;;3.20;2.67;;;;;;;28.72;43.48;98619.22;2234922;79;20924;-85
2022/08/01 13:04:03;;;;;;;6.65;2.47;;;;;;;28.69;42.67;98627.00;2235173;79;21351;-85
2022/08/01 13:07:03;;;;;;;4.40;2.98;;;;;;;28.64;42.98;98629.60;2235128;79;20935;-86
2022/08/01 13:10:03;;;;;;;2.62;2.40;;;;;;;28.64;42.02;98625.09;2234809;79;20960;-84
2022/08/01 13:13:03;;;;;;;2.58;2.37;;;;;;;28.50;41.07;98623.75;2234418;79;20945;-84
2022/08/01 13:16:04;;;;;;;2.98;2.35;;;;;;;28.53;41.48;98619.05;2234982;79;20900;-83
2022/08/01 13:19:04;;;;;;;2.52;2.35;;;;;;;28.93;41.57;98616.49;2235781;79;20924;-84
2022/08/01 13:22:04;;;;;;;5.33;2.98;;;;;;;29.20;40.50;98620.98;2235094;79;20982;-80
2022/08/01 13:25:05;;;;;;;5.70;2.90;;;;;;;29.48;40.42;98616.37;2233164;79;21387;-84
2022/08/01 13:28:05;;;;;;;3.20;2.65;;;;;;;29.73;40.50;98615.52;2234601;80;20924;-83
2022/08/01 13:31:06;;;;;;;5.10;2.70;;;;;;;29.86;40.46;98616.01;2234418;80;20900;-84
2022/08/01 13:34:06;;;;;;;3.10;2.67;;;;;;;29.79;38.79;98610.20;2234904;79;20992;-84
2022/08/01 13:37:06;;;;;;;5.40;2.40;;;;;;;29.82;38.06;98609.13;2234764;79;20873;-83
2022/08/01 13:40:07;;;;;;;4.60;2.80;;;;;;;29.71;38.40;98608.53;2235944;79;20885;-83
2022/08/01 13:43:07;;;;;;;4.33;2.98;;;;;;;29.71;39.04;98605.36;2236287;79;21335;-85
2022/08/01 13:46:08;;;;;;;3.60;2.58;;;;;;;29.67;38.42;98606.54;2236533;79;20896;-84
2022/08/01 13:49:08;;;;;;;4.30;2.90;;;;;;;29.45;39.00;98598.20;2236524;79;20916;-84
2022/08/01 13:52:09;;;;;;;3.62;3.25;;;;;;;29.41;39.71;98598.01;2236620;79;21011;-82
2022/08/01 13:55:09;;;;;;;4.47;3.20;;;;;;;29.36;39.57;98605.05;2236559;80;20908;-83
2022/08/01 13:58:09;;;;;;;3.45;3.15;;;;;;;29.39;40.34;98606.66;2237139;79;20889;-85